Time;durP1;ratioP1;P1;durP2;ratioP2;P2;SDS_P1;SDS_P2;PMS_P1;PMS_P2;Temp;Humidity;BMP_temperature;BMP_pressure;BME280_temperature;BME280_humidity;BME280_pressure;Samples;Min_cycle;Max_cycle;Signal;HPM_P1;HPM_P2
2022/07/20 00:00:48;;;;;;;10.55;8.50;;;22.80;63.00;;;;;;5137418;27;20055;-68
2022/07/20 00:03:14;;;;;;;9.10;8.25;;;22.70;63.10;;;;;;5142395;27;20403;-67
2022/07/20 00:05:41;;;;;;;15.95;9.73;;;22.70;63.00;;;;;;5134218;27;20055;-68
2022/07/20 00:08:08;;;;;;;15.65;8.77;;;22.70;62.90;;;;;;5128716;27;20130;-68
2022/07/20 00:13:19;;;;;;;16.60;8.88;;;22.70;62.70;;;;;;5148958;27;20129;-67
2022/07/20 00:15:45;;;;;;;10.73;9.63;;;22.60;62.90;;;;;;5124514;27;20145;-68
2022/07/20 00:18:11;;;;;;;9.32;8.43;;;22.60;63.10;;;;;;5141549;27;20562;-67
2022/07/20 00:20:37;;;;;;;10.43;9.23;;;22.60;63.00;;;;;;5148938;27;20072;-68
2022/07/20 00:23:03;;;;;;;12.77;8.50;;;22.60;63.00;;;;;;5136170;27;20036;-67
2022/07/20 00:25:30;;;;;;;17.80;8.98;;;22.50;63.30;;;;;;5147920;27;20049;-68
2022/07/20 00:27:56;;;;;;;10.13;9.18;;;22.50;63.80;;;;;;5130371;27;20522;-67
2022/07/20 00:30:22;;;;;;;10.55;9.45;;;22.50;64.00;;;;;;5134563;27;20118;-68
2022/07/20 00:32:48;;;;;;;10.98;9.93;;;22.50;64.00;;;;;;5148238;27;20131;-67
2022/07/20 00:35:15;;;;;;;10.32;9.32;;;22.40;64.30;;;;;;5142069;27;20399;-68
2022/07/20 00:37:42;;;;;;;12.30;10.77;;;22.30;65.10;;;;;;5141992;27;20035;-68
2022/07/20 00:40:10;;;;;;;11.70;9.63;;;22.30;65.80;;;;;;5145564;27;20042;-68
2022/07/20 00:42:36;;;;;;;18.33;11.27;;;22.20;66.10;;;;;;5128432;27;20487;-68
2022/07/20 00:45:03;;;;;;;14.35;9.90;;;22.10;66.30;;;;;;5148948;27;20053;-68
2022/07/20 00:47:29;;;;;;;11.75;9.70;;;22.10;66.50;;;;;;5146551;27;20051;-67
2022/07/20 00:49:55;;;;;;;13.18;8.88;;;22.00;66.50;;;;;;5142584;27;20034;-68
2022/07/20 00:52:20;;;;;;;16.45;10.00;;;22.00;67.00;;;;;;5132787;27;20133;-68
2022/07/20 00:54:48;;;;;;;16.85;9.90;;;22.00;67.40;;;;;;5119378;27;20042;-68
2022/07/20 00:57:15;;;;;;;19.52;9.98;;;22.00;68.20;;;;;;5132146;27;20762;-68
2022/07/20 00:59:40;;;;;;;17.10;10.20;;;21.90;68.30;;;;;;5137866;27;20047;-68
2022/07/20 01:02:06;;;;;;;14.75;10.23;;;22.00;68.90;;;;;;5126603;27;20058;-68
2022/07/20 01:04:32;;;;;;;9.80;8.77;;;21.90;68.70;;;;;;5150667;27;20035;-68
2022/07/20 01:06:58;;;;;;;14.48;10.85;;;21.90;68.50;;;;;;5141442;27;20492;-68
2022/07/20 01:09:24;;;;;;;10.77;8.60;;;21.80;68.60;;;;;;5148173;27;20125;-68
2022/07/20 01:11:51;;;;;;;11.15;9.23;;;21.70;69.30;;;;;;5143786;27;20107;-67
2022/07/20 01:14:16;;;;;;;12.93;9.48;;;21.70;70.00;;;;;;5152354;27;20038;-68
2022/07/20 01:16:42;;;;;;;12.35;9.35;;;21.70;70.90;;;;;;5138179;27;20501;-68
2022/07/20 01:19:08;;;;;;;11.25;10.20;;;21.60;71.80;;;;;;5123689;27;20492;-68
2022/07/20 01:21:41;;;;;;;12.70;9.35;;;21.50;72.00;;;;;;5147545;27;20433;-68
2022/07/20 01:24:11;;;;;;;11.25;10.27;;;21.40;72.90;;;;;;5143258;27;20062;-69
2022/07/20 01:26:42;;;;;;;10.25;9.23;;;21.30;73.60;;;;;;5133417;27;20103;-68
2022/07/20 01:29:09;;;;;;;12.75;8.95;;;21.30;73.90;;;;;;5143965;27;20429;-68
2022/07/20 01:31:35;;;;;;;11.40;10.20;;;21.30;76.00;;;;;;5137701;27;20043;-68
2022/07/20 01:34:00;;;;;;;11.65;9.80;;;21.20;77.30;;;;;;5151781;27;20577;-68
2022/07/20 01:36:26;;;;;;;11.40;10.45;;;21.10;76.80;;;;;;5150808;27;20047;-68
2022/07/20 01:38:52;;;;;;;14.55;10.43;;;21.00;77.80;;;;;;5151668;27;20046;-68
2022/07/20 01:41:18;;;;;;;11.25;10.15;;;21.00;79.00;;;;;;5151797;27;20046;-68
2022/07/20 01:43:43;;;;;;;11.15;10.02;;;21.00;81.10;;;;;;5150386;27;20042;-68
2022/07/20 01:46:09;;;;;;;12.57;11.30;;;20.80;83.60;;;;;;5148284;27;20047;-67
2022/07/20 01:48:36;;;;;;;16.38;10.77;;;20.70;85.30;;;;;;5145581;27;20570;-68
2022/07/20 01:51:02;;;;;;;10.70;9.70;;;20.60;88.60;;;;;;5133836;27;20042;-68
2022/07/20 01:53:28;;;;;;;15.05;11.95;;;20.50;89.80;;;;;;5134089;27;20641;-68
2022/07/20 01:55:54;;;;;;;12.23;10.95;;;20.40;91.20;;;;;;5138639;27;20118;-68
2022/07/20 01:58:20;;;;;;;13.15;10.73;;;20.40;91.80;;;;;;5123034;27;20415;-67
2022/07/20 02:00:46;;;;;;;15.50;10.85;;;20.40;92.00;;;;;;5134167;27;20040;-67
2022/07/20 02:03:12;;;;;;;11.57;10.27;;;20.30;91.30;;;;;;5145720;27;20031;-67
2022/07/20 02:05:38;;;;;;;12.15;10.90;;;20.40;91.80;;;;;;5131538;27;20051;-67
2022/07/20 02:08:04;;;;;;;13.07;11.82;;;20.30;92.30;;;;;;5144051;27;20046;-68
2022/07/20 02:10:29;;;;;;;15.93;10.82;;;20.30;92.00;;;;;;5131019;27;20035;-68
2022/07/20 02:12:55;;;;;;;12.75;11.40;;;20.20;92.60;;;;;;5145086;27;20031;-68
2022/07/20 02:18:07;;;;;;;12.27;10.98;;;20.10;93.70;;;;;;5115838;27;20113;-68
2022/07/20 02:20:33;;;;;;;12.23;10.77;;;20.00;94.00;;;;;;5143409;27;20553;-68
2022/07/20 02:22:59;;;;;;;11.50;10.48;;;20.00;94.50;;;;;;5150653;27;20075;-68
2022/07/20 02:25:25;;;;;;;10.85;9.30;;;20.00;94.50;;;;;;5151778;27;20035;-67
2022/07/20 02:27:50;;;;;;;13.98;11.80;;;20.10;94.60;;;;;;5150556;27;20042;-67
2022/07/20 02:30:16;;;;;;;15.85;11.55;;;20.10;94.30;;;;;;5135108;27;20122;-67
2022/07/20 02:32:41;;;;;;;12.38;11.23;;;19.90;94.80;;;;;;5145776;27;20038;-67
2022/07/20 02:35:07;;;;;;;13.90;11.02;;;19.90;95.30;;;;;;5147721;27;20042;-68
2022/07/20 02:37:33;;;;;;;16.30;11.77;;;19.90;95.80;;;;;;5147268;27;20072;-67
2022/07/20 02:39:59;;;;;;;13.43;11.07;;;19.80;97.80;;;;;;5150933;27;20587;-67
2022/07/20 02:42:24;;;;;;;13.98;11.75;;;19.80;98.60;;;;;;5146415;27;20411;-66
2022/07/20 02:44:50;;;;;;;12.52;11.05;;;19.70;99.50;;;;;;5149859;27;20038;-67
2022/07/20 02:47:16;;;;;;;13.05;11.65;;;19.70;99.90;;;;;;5135904;27;20039;-67
2022/07/20 02:49:41;;;;;;;15.35;10.90;;;19.60;99.90;;;;;;5142730;27;20045;-67
2022/07/20 02:52:07;;;;;;;11.68;10.55;;;19.60;99.90;;;;;;5136782;27;20047;-67
2022/07/20 02:54:32;;;;;;;20.75;11.45;;;19.60;99.90;;;;;;5145357;27;20038;-67
2022/07/20 02:56:58;;;;;;;15.63;11.23;;;19.50;99.90;;;;;;5150304;27;20050;-67
2022/07/20 02:59:24;;;;;;;12.45;11.18;;;19.50;99.90;;;;;;5148868;27;20043;-67
2022/07/20 03:01:51;;;;;;;12.13;11.05;;;19.40;99.90;;;;;;5142557;27;20179;-67
2022/07/20 03:04:16;;;;;;;12.57;11.27;;;19.40;99.90;;;;;;5149736;27;20066;-66
2022/07/20 03:06:42;;;;;;;15.68;11.27;;;19.40;99.90;;;;;;5148968;27;20580;-67
2022/07/20 03:09:08;;;;;;;13.68;10.82;;;19.40;99.90;;;;;;5149911;27;20035;-66
2022/07/20 03:11:33;;;;;;;12.30;11.10;;;19.40;99.90;;;;;;5149731;27;20073;-67
2022/07/20 03:13:59;;;;;;;12.20;10.05;;;19.40;99.90;;;;;;5137553;27;20721;-67
2022/07/20 03:16:25;;;;;;;18.90;10.75;;;19.40;99.90;;;;;;5142126;27;20873;-67
2022/07/20 03:18:50;;;;;;;11.50;10.50;;;19.30;99.90;;;;;;5132492;27;20047;-67
2022/07/20 03:21:16;;;;;;;11.35;9.57;;;19.30;99.90;;;;;;5134229;27;20038;-67
2022/07/20 03:23:42;;;;;;;15.25;11.25;;;19.20;99.90;;;;;;5149503;27;20076;-67
2022/07/20 03:26:07;;;;;;;16.75;11.30;;;19.20;99.90;;;;;;5145760;27;20059;-67
2022/07/20 03:28:33;;;;;;;16.55;11.52;;;19.10;99.90;;;;;;5149131;27;20042;-67
2022/07/20 03:30:59;;;;;;;12.05;10.95;;;19.00;99.90;;;;;;5141259;27;20452;-67
2022/07/20 03:33:25;;;;;;;15.80;10.48;;;18.90;99.90;;;;;;5138892;27;20104;-67
2022/07/20 03:35:51;;;;;;;10.52;9.52;;;18.90;99.90;;;;;;5133918;27;20035;-67
2022/07/20 03:38:16;;;;;;;11.40;10.25;;;19.00;99.90;;;;;;5136637;27;20053;-67
2022/07/20 03:40:42;;;;;;;13.65;10.35;;;19.00;99.90;;;;;;5145180;27;20092;-67
2022/07/20 03:43:08;;;;;;;10.57;9.68;;;19.00;99.90;;;;;;5142131;27;20034;-68
2022/07/20 03:45:33;;;;;;;13.82;11.50;;;19.00;99.90;;;;;;5149670;27;20038;-67
2022/07/20 03:47:59;;;;;;;12.25;10.27;;;19.00;99.90;;;;;;5148610;27;20074;-67
2022/07/20 03:50:25;;;;;;;13.82;11.75;;;19.00;99.90;;;;;;5148787;27;20042;-67
2022/07/20 03:52:51;;;;;;;12.02;10.98;;;19.00;99.90;;;;;;5149198;27;20506;-67
2022/07/20 03:55:17;;;;;;;12.38;10.93;;;19.00;99.90;;;;;;5141479;27;20076;-67
2022/07/20 03:57:43;;;;;;;21.30;11.60;;;19.00;99.90;;;;;;5147146;27;20078;-67
2022/07/20 04:00:09;;;;;;;20.13;11.25;;;19.00;99.90;;;;;;5147235;27;20050;-67
2022/07/20 04:02:35;;;;;;;11.40;10.32;;;18.90;99.90;;;;;;5145916;27;20047;-67
2022/07/20 04:05:00;;;;;;;17.15;9.95;;;18.90;99.90;;;;;;5130676;27;20041;-67
2022/07/20 04:07:26;;;;;;;11.82;10.52;;;18.90;99.90;;;;;;5149307;27;20118;-67
2022/07/20 04:09:52;;;;;;;10.80;9.75;;;18.90;99.90;;;;;;5145586;27;20075;-66
2022/07/20 04:12:24;;;;;;;14.23;11.13;;;19.00;99.90;;;;;;5144237;27;20470;-66
2022/07/20 04:14:51;;;;;;;13.73;10.88;;;19.00;99.90;;;;;;5135914;27;20565;-66
2022/07/20 04:17:18;;;;;;;11.98;10.82;;;19.00;99.90;;;;;;5146401;27;20034;-67
2022/07/20 04:19:44;;;;;;;10.70;9.80;;;19.10;99.90;;;;;;5147862;27;20046;-67
2022/07/20 04:22:10;;;;;;;14.27;11.38;;;19.20;99.90;;;;;;5148199;27;20316;-67
2022/07/20 04:24:36;;;;;;;12.70;11.45;;;19.50;99.90;;;;;;5149317;27;20078;-67
2022/07/20 04:27:02;;;;;;;14.05;10.55;;;19.70;99.90;;;;;;5141225;27;20103;-67
2022/07/20 04:29:28;;;;;;;12.70;11.40;;;19.90;99.90;;;;;;5130793;27;20050;-67
2022/07/20 04:31:54;;;;;;;10.93;9.82;;;20.10;99.90;;;;;;5142821;27;20034;-67
2022/07/20 04:34:20;;;;;;;12.50;11.10;;;20.10;99.90;;;;;;5144265;27;20038;-66
2022/07/20 04:36:46;;;;;;;11.40;10.48;;;20.00;99.90;;;;;;5145851;27;20839;-67
2022/07/20 04:39:12;;;;;;;12.38;9.95;;;19.90;99.90;;;;;;5128388;27;20043;-67
2022/07/20 04:41:38;;;;;;;11.65;10.57;;;19.80;99.90;;;;;;5140179;27;20051;-67
2022/07/20 04:44:04;;;;;;;10.82;9.93;;;19.80;99.90;;;;;;5148210;27;20046;-67
2022/07/20 04:46:30;;;;;;;14.38;11.13;;;19.70;99.90;;;;;;5147936;27;20042;-67
2022/07/20 04:48:56;;;;;;;11.82;10.63;;;19.70;99.90;;;;;;5139691;27;20114;-67
2022/07/20 04:51:22;;;;;;;17.67;11.55;;;19.70;99.90;;;;;;5117184;28;20039;-69
2022/07/20 04:53:48;;;;;;;11.50;10.30;;;19.70;99.90;;;;;;5140607;27;20058;-68
2022/07/20 04:56:14;;;;;;;12.00;10.90;;;19.60;99.90;;;;;;5146654;27;20039;-67
2022/07/20 04:58:39;;;;;;;12.48;11.23;;;19.60;99.90;;;;;;5145575;27;20050;-67
2022/07/20 05:01:05;;;;;;;15.75;11.13;;;19.60;99.90;;;;;;5124705;27;20047;-68
2022/07/20 05:03:31;;;;;;;11.45;10.40;;;19.70;99.90;;;;;;5127348;27;20147;-68
2022/07/20 05:05:57;;;;;;;12.27;10.98;;;19.60;99.90;;;;;;5146938;27;20079;-68
2022/07/20 05:08:22;;;;;;;13.48;10.40;;;19.60;99.90;;;;;;5147559;27;20097;-68
2022/07/20 05:10:48;;;;;;;11.40;10.30;;;19.70;99.90;;;;;;5133087;27;20047;-68
2022/07/20 05:13:13;;;;;;;12.40;10.20;;;19.80;99.90;;;;;;5143533;27;20406;-68
2022/07/20 05:15:39;;;;;;;19.00;10.68;;;19.90;99.90;;;;;;5115403;27;20046;-68
2022/07/20 05:18:05;;;;;;;12.32;10.98;;;20.00;99.90;;;;;;5124350;27;20121;-68
2022/07/20 05:20:31;;;;;;;15.73;12.55;;;20.20;99.90;;;;;;5144669;27;20055;-69
2022/07/20 05:22:56;;;;;;;14.68;10.10;;;20.30;99.90;;;;;;5147031;27;20534;-68
2022/07/20 05:25:22;;;;;;;15.15;10.48;;;20.50;99.80;;;;;;5146041;27;20053;-68
2022/07/20 05:27:47;;;;;;;17.05;12.07;;;20.50;98.00;;;;;;5128776;27;20562;-69
2022/07/20 05:30:13;;;;;;;12.40;11.23;;;20.70;99.90;;;;;;5144823;27;20092;-69
2022/07/20 05:32:39;;;;;;;12.30;11.20;;;20.80;99.90;;;;;;5124750;28;20040;-68
2022/07/20 05:35:06;;;;;;;16.00;11.90;;;20.90;99.90;;;;;;5141032;27;20043;-67
2022/07/20 05:37:31;;;;;;;18.27;11.23;;;21.00;99.90;;;;;;5136396;27;20039;-68
2022/07/20 05:39:57;;;;;;;12.50;11.45;;;21.10;99.90;;;;;;5145528;27;20056;-68
2022/07/20 05:42:23;;;;;;;13.23;11.90;;;21.10;99.90;;;;;;5130646;27;20042;-68
2022/07/20 05:44:48;;;;;;;18.83;11.50;;;21.20;99.90;;;;;;5149823;27;20403;-67
2022/07/20 05:47:14;;;;;;;16.48;12.52;;;21.20;99.90;;;;;;5145499;27;20053;-68
2022/07/20 05:49:41;;;;;;;14.13;12.27;;;21.30;99.90;;;;;;5129585;27;20039;-68
2022/07/20 05:52:06;;;;;;;14.18;11.77;;;21.40;99.90;;;;;;5133083;27;20047;-68
2022/07/20 05:54:32;;;;;;;15.98;12.13;;;21.50;99.90;;;;;;5150414;27;20164;-67
2022/07/20 05:56:57;;;;;;;21.05;12.68;;;21.60;99.90;;;;;;5129672;27;20069;-68
2022/07/20 05:59:25;;;;;;;12.57;11.25;;;21.70;99.90;;;;;;5123815;27;20047;-68
2022/07/20 06:01:51;;;;;;;20.67;12.02;;;21.80;99.90;;;;;;5118245;27;20043;-67
2022/07/20 06:04:16;;;;;;;15.50;12.75;;;21.90;99.90;;;;;;5112103;27;20472;-67
2022/07/20 06:06:42;;;;;;;12.98;11.65;;;22.00;99.90;;;;;;5113009;27;20031;-67
2022/07/20 06:09:09;;;;;;;16.58;11.35;;;22.10;99.90;;;;;;5123305;27;20046;-67
2022/07/20 06:11:35;;;;;;;15.50;12.77;;;22.10;99.90;;;;;;5109400;27;20047;-68
2022/07/20 06:14:01;;;;;;;13.20;11.90;;;22.20;99.90;;;;;;5108124;27;20077;-68
2022/07/20 06:16:27;;;;;;;12.93;11.82;;;22.40;99.90;;;;;;5121725;27;20404;-67
2022/07/20 06:18:53;;;;;;;14.20;11.90;;;22.40;99.90;;;;;;5115560;27;20056;-67
2022/07/20 06:21:19;;;;;;;13.52;12.07;;;22.50;99.90;;;;;;5128089;27;20047;-68
2022/07/20 06:23:45;;;;;;;21.67;11.13;;;22.60;99.90;;;;;;5129746;27;20043;-68
2022/07/20 06:26:11;;;;;;;17.83;12.35;;;22.80;99.90;;;;;;5130154;27;20403;-67
2022/07/20 06:28:36;;;;;;;12.73;11.57;;;22.90;99.90;;;;;;5130071;27;20089;-67
2022/07/20 06:31:03;;;;;;;21.15;11.88;;;23.00;99.90;;;;;;5119670;27;20088;-68
2022/07/20 06:33:29;;;;;;;13.27;11.80;;;23.00;99.90;;;;;;5126529;27;20499;-68
2022/07/20 06:35:54;;;;;;;12.93;11.75;;;23.10;99.90;;;;;;5126112;27;20074;-68
2022/07/20 06:38:20;;;;;;;16.88;12.40;;;23.20;99.90;;;;;;5118743;27;20412;-68
2022/07/20 06:40:45;;;;;;;16.98;11.55;;;23.40;99.10;;;;;;5116248;27;20055;-67
2022/07/20 06:43:11;;;;;;;19.67;13.52;;;23.60;99.90;;;;;;5120802;27;20046;-67
2022/07/20 06:45:37;;;;;;;14.00;11.80;;;23.90;99.90;;;;;;5128315;27;20051;-67
2022/07/20 06:48:03;;;;;;;12.38;11.07;;;24.20;99.90;;;;;;5117927;27;20493;-68
2022/07/20 06:50:28;;;;;;;14.15;10.93;;;24.50;94.20;;;;;;5118443;27;20046;-67
2022/07/20 06:52:54;;;;;;;12.45;10.30;;;24.90;94.00;;;;;;5114759;27;20085;-68
2022/07/20 06:55:20;;;;;;;11.85;10.70;;;25.20;82.90;;;;;;5115683;27;20035;-67
2022/07/20 06:57:45;;;;;;;13.90;11.15;;;25.50;76.10;;;;;;5138422;27;20669;-70
2022/07/20 07:00:12;;;;;;;13.25;10.07;;;25.90;70.80;;;;;;5101572;27;20107;-71
2022/07/20 07:02:38;;;;;;;18.35;10.40;;;26.20;67.20;;;;;;5146840;27;20058;-70
2022/07/20 07:05:04;;;;;;;11.48;10.25;;;26.60;65.70;;;;;;5131304;27;20053;-70
2022/07/20 07:07:30;;;;;;;11.98;10.68;;;26.90;64.40;;;;;;5150064;27;20056;-70
2022/07/20 07:09:55;;;;;;;14.63;11.45;;;27.10;61.10;;;;;;5120837;27;20511;-71
2022/07/20 07:12:21;;;;;;;15.18;11.70;;;27.40;60.10;;;;;;5130145;27;20098;-70
2022/07/20 07:14:47;;;;;;;11.88;10.20;;;27.70;59.30;;;;;;5150017;27;20047;-70
2022/07/20 07:17:13;;;;;;;13.00;10.10;;;28.00;58.10;;;;;;5142033;27;20054;-71
2022/07/20 07:19:40;;;;;;;14.35;10.98;;;28.20;57.30;;;;;;5116564;27;20916;-65
2022/07/20 07:22:06;;;;;;;15.27;10.52;;;28.50;56.80;;;;;;5143935;27;20042;-64
2022/07/20 07:24:31;;;;;;;11.27;10.27;;;28.70;56.60;;;;;;5127240;27;20106;-65
2022/07/20 07:26:57;;;;;;;13.40;11.93;;;28.90;55.50;;;;;;5148041;27;20073;-65
2022/07/20 07:29:25;;;;;;;12.32;11.10;;;29.00;53.80;;;;;;5121085;27;20038;-65
2022/07/20 07:31:51;;;;;;;12.55;9.85;;;29.20;53.70;;;;;;5139572;27;20070;-65
2022/07/20 07:34:16;;;;;;;11.68;10.48;;;29.30;54.10;;;;;;5144453;27;20073;-65
2022/07/20 07:36:42;;;;;;;16.88;11.82;;;29.40;53.60;;;;;;5132323;27;20851;-64
2022/07/20 07:39:08;;;;;;;14.10;11.65;;;29.60;53.10;;;;;;5136069;27;20039;-64
2022/07/20 07:41:34;;;;;;;13.95;11.77;;;29.70;53.10;;;;;;5134806;27;20377;-65
2022/07/20 07:44:01;;;;;;;14.05;10.98;;;30.00;53.30;;;;;;5143987;27;20045;-64
2022/07/20 07:46:26;;;;;;;13.10;11.63;;;30.00;52.60;;;;;;5141570;27;20561;-65
2022/07/20 07:48:52;;;;;;;12.80;11.40;;;30.20;52.80;;;;;;5143327;27;20035;-65
2022/07/20 07:51:18;;;;;;;13.35;12.05;;;30.30;52.50;;;;;;5147817;27;20673;-65
2022/07/20 07:53:45;;;;;;;15.23;12.80;;;30.50;52.10;;;;;;5146906;27;20042;-65
2022/07/20 07:56:12;;;;;;;13.02;11.93;;;30.60;51.30;;;;;;5146733;27;20066;-65
2022/07/20 07:58:38;;;;;;;19.13;12.30;;;30.80;51.40;;;;;;5140191;27;20059;-65
2022/07/20 08:01:03;;;;;;;15.05;13.65;;;30.90;51.20;;;;;;5142884;27;20050;-65
2022/07/20 08:03:29;;;;;;;13.52;12.13;;;30.80;50.70;;;;;;5130438;27;20411;-65
2022/07/20 08:05:55;;;;;;;15.43;12.70;;;31.00;51.20;;;;;;5134111;27;20060;-66
2022/07/20 08:08:21;;;;;;;18.50;13.40;;;31.10;51.00;;;;;;5139378;27;20450;-65
2022/07/20 08:10:46;;;;;;;14.63;13.00;;;31.30;51.10;;;;;;5134135;27;20119;-65
2022/07/20 08:13:13;;;;;;;15.07;13.05;;;31.30;51.20;;;;;;5147558;27;20034;-66
2022/07/20 08:15:39;;;;;;;14.38;12.80;;;31.40;51.20;;;;;;5148953;27;20046;-65
2022/07/20 08:18:04;;;;;;;17.98;15.10;;;31.40;51.00;;;;;;5149016;27;20430;-65
2022/07/20 08:20:31;;;;;;;15.95;14.50;;;31.50;51.30;;;;;;5146768;27;20479;-66
2022/07/20 08:22:56;;;;;;;19.83;16.30;;;31.50;51.70;;;;;;5136644;27;20064;-65
2022/07/20 08:25:22;;;;;;;23.38;15.73;;;31.50;51.30;;;;;;5148178;27;20027;-66
2022/07/20 08:27:49;;;;;;;17.85;15.85;;;31.50;51.40;;;;;;5141584;27;20039;-66
2022/07/20 08:30:15;;;;;;;23.67;17.85;;;31.70;51.90;;;;;;5126755;27;20050;-66
2022/07/20 08:32:40;;;;;;;21.10;19.00;;;31.70;51.90;;;;;;5129321;27;20039;-65
2022/07/20 08:35:07;;;;;;;22.52;17.73;;;31.80;52.10;;;;;;5093303;27;20407;-65
2022/07/20 08:37:32;;;;;;;22.52;20.10;;;31.80;52.10;;;;;;5140833;27;20608;-65
2022/07/20 08:39:58;;;;;;;26.65;20.02;;;32.00;52.50;;;;;;5114643;27;20134;-66
2022/07/20 08:42:24;;;;;;;23.03;20.63;;;32.10;52.50;;;;;;5141951;27;20042;-66
2022/07/20 08:44:50;;;;;;;25.15;22.05;;;32.20;53.00;;;;;;5145160;27;20041;-65
2022/07/20 08:47:17;;;;;;;32.55;23.85;;;32.30;53.40;;;;;;5144326;27;20087;-66
2022/07/20 08:49:49;;;;;;;25.88;23.10;;;32.20;53.50;;;;;;5141185;27;20082;-66
2022/07/20 08:52:16;;;;;;;33.58;28.58;;;31.90;54.00;;;;;;5127771;27;20060;-65
2022/07/20 08:54:41;;;;;;;;;;;32.10;55.10;;;;;;5144356;27;20080;-66
2022/07/20 08:57:17;;;;;;;48.60;31.67;;;32.00;56.20;;;;;;5139322;27;19927;-66
2022/07/20 08:59:44;;;;;;;36.47;30.33;;;32.00;56.80;;;;;;5145371;27;20410;-65
2022/07/20 09:02:11;;;;;;;34.13;29.05;;;31.90;56.90;;;;;;5148560;27;20062;-65
2022/07/20 09:04:55;;;;;;;33.92;30.70;;;32.00;57.10;;;;;;5147646;27;20039;-65
2022/07/20 09:07:38;;;;;;;34.90;31.20;;;32.10;58.10;;;;;;5142170;27;20083;-65
2022/07/20 09:10:07;;;;;;;39.35;33.45;;;32.10;58.50;;;;;;5150781;27;20118;-67
2022/07/20 09:12:49;;;;;;;37.85;33.38;;;32.20;57.90;;;;;;5152286;27;20406;-67
2022/07/20 09:15:37;;;;;;;40.42;34.25;;;32.20;58.20;;;;;;5151690;27;20043;-67
2022/07/20 09:18:07;;;;;;;37.85;32.33;;;32.20;58.40;;;;;;5143009;27;20495;-65
2022/07/20 09:20:34;;;;;;;40.20;31.90;;;32.50;58.30;;;;;;5146102;27;20077;-66
2022/07/20 09:23:01;;;;;;;;;;;32.50;58.10;;;;;;5152476;27;20042;-65
2022/07/20 09:25:27;;;;;;;42.33;35.20;;;32.50;58.70;;;;;;5143847;27;20628;-66
2022/07/20 09:27:53;;;;;;;38.47;34.53;;;32.50;58.10;;;;;;5149992;27;20041;-65
2022/07/20 09:30:18;;;;;;;43.80;37.40;;;32.50;58.00;;;;;;5140981;27;20054;-65
2022/07/20 09:33:00;;;;;;;43.00;36.22;;;32.40;57.80;;;;;;5148785;27;20054;-65
2022/07/20 09:35:34;;;;;;;40.45;36.53;;;32.30;57.90;;;;;;5145712;27;20046;-65
2022/07/20 09:38:03;;;;;;;42.55;36.42;;;32.30;57.60;;;;;;5141859;27;20202;-65
2022/07/20 09:40:43;;;;;;;49.17;38.30;;;32.20;57.50;;;;;;5147966;27;20043;-65
2022/07/20 09:43:30;;;;;;;39.92;35.92;;;32.50;58.70;;;;;;5123594;27;20054;-65
2022/07/20 09:46:12;;;;;;;50.03;38.05;;;32.40;56.40;;;;;;5135526;27;20122;-65
2022/07/20 09:48:46;;;;;;;42.33;37.80;;;32.40;55.90;;;;;;5132460;27;20515;-65
2022/07/20 09:51:33;;;;;;;47.95;39.35;;;32.50;56.40;;;;;;5142313;27;20097;-65
2022/07/20 09:54:09;;;;;;;;;;;32.40;56.20;;;;;;5149517;27;20059;-64
2022/07/20 09:56:39;;;;;;;45.83;38.38;;;32.40;55.40;;;;;;5149355;27;19919;-65
2022/07/20 09:59:07;;;;;;;44.83;40.03;;;32.40;56.20;;;;;;5147728;27;20500;-65
2022/07/20 10:01:35;;;;;;;43.50;38.95;;;32.40;55.90;;;;;;5140269;27;20050;-66
2022/07/20 10:04:04;;;;;;;48.92;41.97;;;32.40;56.50;;;;;;5129944;27;21098;-66
2022/07/20 10:06:30;;;;;;;48.42;39.78;;;32.50;56.80;;;;;;5143838;27;20043;-66
2022/07/20 10:08:57;;;;;;;47.13;42.10;;;32.60;56.10;;;;;;5140060;27;20046;-65
2022/07/20 10:11:25;;;;;;;51.10;42.33;;;32.60;55.90;;;;;;5149168;27;20042;-66
2022/07/20 10:13:53;;;;;;;44.22;39.50;;;32.60;55.70;;;;;;5126768;27;20046;-66
2022/07/20 10:16:44;;;;;;;40.58;35.92;;;32.60;54.70;;;;;;5150692;27;20038;-66
2022/07/20 10:19:11;;;;;;;39.97;35.67;;;32.70;53.20;;;;;;5136731;27;20047;-66
2022/07/20 10:21:47;;;;;;;40.90;35.80;;;32.90;52.80;;;;;;5140822;27;20049;-66
2022/07/20 10:24:18;;;;;;;49.15;37.45;;;32.80;53.10;;;;;;5146727;27;20123;-66
2022/07/20 10:26:45;;;;;;;37.85;33.00;;;32.90;52.60;;;;;;5151161;27;20043;-66
2022/07/20 10:29:23;;;;;;;;;;;32.80;51.60;;;;;;5148050;27;20043;-66
2022/07/20 10:31:51;;;;;;;37.78;33.67;;;32.80;50.90;;;;;;5139584;27;19957;-66
2022/07/20 10:34:35;;;;;;;34.80;30.20;;;33.00;51.90;;;;;;5142961;27;20042;-65
2022/07/20 10:37:20;;;;;;;34.15;30.88;;;32.90;50.00;;;;;;5140432;27;20039;-66
2022/07/20 10:39:47;;;;;;;35.28;31.20;;;32.80;50.10;;;;;;5145334;27;20491;-65
2022/07/20 10:42:21;;;;;;;35.17;30.05;;;32.80;50.80;;;;;;5135656;27;20046;-65
2022/07/20 10:44:47;;;;;;;33.05;28.90;;;32.90;50.20;;;;;;5137201;27;20054;-65
2022/07/20 10:47:50;;;;;;;32.30;29.02;;;32.90;50.20;;;;;;5145777;27;20046;-67
2022/07/20 10:50:31;;;;;;;37.88;29.05;;;33.00;49.70;;;;;;5137578;27;20483;-66
2022/07/20 10:53:09;;;;;;;33.53;29.98;;;33.10;49.60;;;;;;5148673;27;20507;-66
2022/07/20 10:55:35;;;;;;;31.98;28.65;;;33.20;49.30;;;;;;5140807;27;20047;-66
2022/07/20 10:58:20;;;;;;;37.28;30.80;;;33.10;49.50;;;;;;5137599;27;20142;-66
2022/07/20 11:00:54;;;;;;;34.33;30.83;;;33.20;48.30;;;;;;5140795;27;20076;-66
2022/07/20 11:03:27;;;;;;;30.92;27.70;;;33.20;48.80;;;;;;5149953;27;20111;-66
2022/07/20 11:06:04;;;;;;;34.60;30.30;;;33.30;49.50;;;;;;5141870;27;20047;-66
2022/07/20 11:08:30;;;;;;;32.58;29.48;;;33.60;48.70;;;;;;5144315;27;20059;-66
2022/07/20 11:10:56;;;;;;;30.20;26.98;;;33.50;49.00;;;;;;5129392;27;20047;-66
2022/07/20 11:13:22;;;;;;;31.80;28.48;;;33.60;49.50;;;;;;5142645;27;20430;-65
2022/07/20 11:15:54;;;;;;;32.00;28.90;;;33.60;48.90;;;;;;5148662;27;20126;-66
2022/07/20 11:18:22;;;;;;;29.83;26.95;;;33.70;48.90;;;;;;5145977;27;20030;-66
2022/07/20 11:20:55;;;;;;;29.85;26.80;;;33.70;48.60;;;;;;5137046;27;20081;-65
2022/07/20 11:23:24;;;;;;;34.05;28.27;;;33.70;48.60;;;;;;5141851;27;20125;-66
2022/07/20 11:25:59;;;;;;;26.25;23.60;;;33.70;47.90;;;;;;5134788;27;20503;-66
2022/07/20 11:28:30;;;;;;;23.98;21.65;;;33.70;47.30;;;;;;5136161;27;20778;-66
2022/07/20 11:30:57;;;;;;;22.02;19.77;;;33.70;47.40;;;;;;5144823;27;20035;-66
2022/07/20 11:33:29;;;;;;;;;;;33.50;46.80;;;;;;5138524;27;20540;-66
2022/07/20 11:35:58;;;;;;;25.45;22.88;;;33.70;45.90;;;;;;5138727;27;19958;-66
2022/07/20 11:38:33;;;;;;;28.10;24.60;;;33.70;46.80;;;;;;5126163;27;20376;-65
2022/07/20 11:41:02;;;;;;;23.30;21.10;;;33.80;47.30;;;;;;5144547;27;20035;-65
2022/07/20 11:43:28;;;;;;;25.23;22.65;;;33.80;47.90;;;;;;5146364;27;20109;-65
2022/07/20 11:46:06;;;;;;;25.02;22.55;;;34.00;47.70;;;;;;5136750;27;20046;-65
2022/07/20 11:48:32;;;;;;;25.25;22.48;;;34.10;48.40;;;;;;5144586;27;20042;-65
2022/07/20 11:50:58;;;;;;;26.13;21.03;;;34.00;48.50;;;;;;5145658;27;20372;-65
2022/07/20 11:53:50;;;;;;;22.52;20.27;;;34.20;48.40;;;;;;5148037;27;20091;-65
2022/07/20 11:56:18;;;;;;;21.55;19.52;;;34.10;46.50;;;;;;5132693;27;20527;-65
2022/07/20 11:58:47;;;;;;;21.20;19.20;;;34.00;46.90;;;;;;5140574;27;20055;-66
2022/07/20 12:01:19;;;;;;;20.73;18.60;;;34.10;46.90;;;;;;5149641;27;20051;-65
2022/07/20 12:03:54;;;;;;;21.08;19.02;;;33.90;46.50;;;;;;5147297;27;20786;-65
2022/07/20 12:06:20;;;;;;;22.00;19.75;;;33.80;46.70;;;;;;5149156;27;20043;-66
2022/07/20 12:09:01;;;;;;;21.00;19.10;;;33.80;47.10;;;;;;5137231;27;20053;-66
2022/07/20 12:11:26;;;;;;;23.77;19.67;;;33.90;47.80;;;;;;5147955;27;20035;-66
2022/07/20 12:13:52;;;;;;;25.37;18.57;;;34.00;47.30;;;;;;5148019;27;20039;-66
2022/07/20 12:16:18;;;;;;;29.97;20.53;;;33.90;47.30;;;;;;5140086;27;20068;-66
2022/07/20 12:18:51;;;;;;;20.95;18.92;;;33.80;46.70;;;;;;5137431;27;20487;-66
2022/07/20 12:21:27;;;;;;;21.17;18.05;;;33.80;46.10;;;;;;5143570;27;20046;-67
2022/07/20 12:23:54;;;;;;;20.40;17.80;;;33.80;46.40;;;;;;5143111;27;20118;-64
2022/07/20 12:26:27;;;;;;;18.23;16.48;;;34.10;45.90;;;;;;5138717;27;20043;-64
2022/07/20 12:28:55;;;;;;;19.38;17.45;;;34.10;45.90;;;;;;5112288;28;20043;-64
2022/07/20 12:31:24;;;;;;;17.35;15.43;;;34.20;45.90;;;;;;5138899;27;20035;-64
2022/07/20 12:33:59;;;;;;;19.10;17.23;;;34.20;45.60;;;;;;5138709;27;20518;-64
2022/07/20 12:36:35;;;;;;;20.50;16.55;;;34.10;44.50;;;;;;5143848;27;20035;-64
2022/07/20 12:39:03;;;;;;;19.00;17.23;;;34.20;45.90;;;;;;5137857;27;20039;-64